createdAt,value
2022-12-08T00:01:14.012Z,-0.03
2022-12-08T00:03:41.291Z,0.07
2022-12-08T00:06:41.229Z,0.07
2022-12-08T00:09:22.515Z,-0.12
2022-12-08T00:11:57.531Z,0.11
2022-12-08T00:14:30.078Z,0.14
2022-12-08T00:16:57.547Z,0.12
2022-12-08T00:19:24.881Z,0.14
2022-12-08T00:21:52.320Z,0.18
2022-12-08T00:24:19.462Z,0.06
2022-12-08T00:26:46.869Z,-0.04
2022-12-08T00:29:17.321Z,0.10
2022-12-08T00:31:44.713Z,0.06
2022-12-08T00:34:15.548Z,0.14
2022-12-08T00:36:42.780Z,0.01
2022-12-08T00:39:10.759Z,0.14
2022-12-08T00:41:55.897Z,0.12
2022-12-08T00:44:22.557Z,0.21
2022-12-08T00:46:49.493Z,0.22
2022-12-08T00:49:16.944Z,0.15
2022-12-08T00:51:44.048Z,0.24
2022-12-08T00:54:11.726Z,0.05
2022-12-08T00:56:38.512Z,-0.02
2022-12-08T00:59:07.033Z,0.14
2022-12-08T01:01:34.869Z,0.10
2022-12-08T01:04:10.225Z,0.17
2022-12-08T01:06:36.919Z,0.16
2022-12-08T01:09:05.251Z,0.16
2022-12-08T01:11:32.642Z,0.13
2022-12-08T01:13:59.380Z,0.06
2022-12-08T01:16:29.235Z,0.01
2022-12-08T01:18:57.637Z,-0.05
2022-12-08T01:21:24.406Z,-0.01
2022-12-08T01:23:51.250Z,0.11
2022-12-08T01:26:19.181Z,0.02
2022-12-08T01:28:46.910Z,0.02
2022-12-08T01:31:16.874Z,0.06
2022-12-08T01:33:43.950Z,-0.03
2022-12-08T01:36:23.519Z,0.09
2022-12-08T01:38:51.101Z,0.14
2022-12-08T01:41:21.123Z,0.09
2022-12-08T01:44:02.587Z,-0.13
2022-12-08T01:46:31.888Z,-0.05
2022-12-08T01:49:23.380Z,0.01
2022-12-08T01:51:55.588Z,0.01
2022-12-08T01:54:24.106Z,-0.03
2022-12-08T01:57:08.490Z,0.07
2022-12-08T01:59:40.347Z,0.10
2022-12-08T02:02:08.610Z,0.10
2022-12-08T02:04:35.405Z,-0.01
2022-12-08T02:07:07.823Z,0.01
2022-12-08T02:09:36.008Z,0.00
2022-12-08T02:12:02.726Z,0.01
2022-12-08T02:14:29.487Z,0.14
2022-12-08T02:17:14.319Z,0.12
2022-12-08T02:19:55.075Z,0.14
2022-12-08T02:22:59.380Z,0.22
2022-12-08T02:25:55.045Z,0.28
2022-12-08T02:29:00.267Z,0.18
2022-12-08T02:32:19.965Z,0.20
2022-12-08T02:35:11.362Z,0.21
2022-12-08T02:37:55.276Z,0.21
2022-12-08T02:40:47.536Z,0.08
2022-12-08T02:43:23.019Z,0.09
2022-12-08T02:45:55.539Z,-0.06
2022-12-08T02:48:22.307Z,-0.04
2022-12-08T02:50:48.934Z,-0.03
2022-12-08T02:56:05.970Z,-0.16
2022-12-08T02:59:01.589Z,-0.08
2022-12-08T03:01:34.369Z,-0.14
2022-12-08T03:04:36.147Z,-0.16
2022-12-08T03:07:05.782Z,-0.21
2022-12-08T03:10:05.786Z,-0.26
2022-12-08T03:12:56.829Z,-0.10
2022-12-08T03:15:23.709Z,-0.18
2022-12-08T03:17:57.390Z,-0.19
2022-12-08T03:20:26.036Z,-0.32
2022-12-08T03:22:56.245Z,-0.14
2022-12-08T03:25:28.340Z,0.01
2022-12-08T03:27:55.014Z,-0.02
2022-12-08T03:30:21.733Z,0.01
2022-12-08T03:33:23.338Z,0.04
2022-12-08T03:35:51.032Z,0.02
2022-12-08T03:38:17.965Z,-0.10
2022-12-08T03:41:05.457Z,-0.10
2022-12-08T03:43:32.195Z,-0.14
2022-12-08T03:45:58.932Z,-0.09
2022-12-08T03:48:25.629Z,0.04
2022-12-08T03:50:52.315Z,0.05
2022-12-08T03:53:19.033Z,-0.12
2022-12-08T03:55:45.768Z,-0.24
2022-12-08T03:58:12.368Z,-0.12
2022-12-08T04:00:38.958Z,-0.13
2022-12-08T04:03:06.507Z,-0.11
2022-12-08T04:05:33.277Z,-0.09
2022-12-08T04:08:01.240Z,-0.33
2022-12-08T04:10:28.178Z,-0.12
2022-12-08T04:12:54.819Z,-0.13
2022-12-08T04:15:21.534Z,-0.12
2022-12-08T04:17:48.156Z,-0.16
2022-12-08T04:20:14.869Z,-0.07
2022-12-08T04:22:41.516Z,-0.05
2022-12-08T04:25:08.616Z,-0.10
2022-12-08T04:27:35.445Z,-0.15
2022-12-08T04:30:02.647Z,-0.13
2022-12-08T04:32:29.476Z,-0.21
2022-12-08T04:34:56.279Z,-0.16
2022-12-08T04:37:22.956Z,-0.24
2022-12-08T04:39:49.667Z,-0.08
2022-12-08T04:42:16.334Z,-0.16
2022-12-08T04:44:43.057Z,-0.01
2022-12-08T04:47:09.722Z,-0.08
2022-12-08T04:49:36.449Z,-0.15
2022-12-08T04:52:03.491Z,-0.22
2022-12-08T04:54:30.193Z,-0.40
2022-12-08T04:56:56.971Z,-0.56
2022-12-08T04:59:23.691Z,-0.66
2022-12-08T05:01:50.637Z,-0.48
2022-12-08T05:04:17.463Z,-0.35
2022-12-08T05:06:44.116Z,-0.28
2022-12-08T05:09:11.111Z,-0.09
2022-12-08T05:11:48.408Z,-0.09
2022-12-08T05:14:17.064Z,-0.18
2022-12-08T05:16:46.333Z,-0.25
2022-12-08T05:19:14.045Z,-0.16
2022-12-08T05:21:40.758Z,-0.39
2022-12-08T05:24:07.559Z,-0.53
2022-12-08T05:26:34.259Z,-0.61
2022-12-08T05:29:01.004Z,-0.66
2022-12-08T05:31:27.800Z,-0.51
2022-12-08T05:33:58.391Z,-0.39
2022-12-08T05:36:27.722Z,-0.44
2022-12-08T05:38:56.956Z,-0.32
2022-12-08T05:41:23.968Z,-0.46
2022-12-08T05:43:50.853Z,-0.59
2022-12-08T05:46:28.126Z,-0.76
2022-12-08T05:48:54.868Z,-0.72
2022-12-08T05:51:23.986Z,-0.75
2022-12-08T05:53:51.505Z,-0.52
2022-12-08T05:56:18.995Z,-0.64
2022-12-08T05:58:46.266Z,-0.78
2022-12-08T06:01:23.431Z,-0.67
2022-12-08T06:03:50.581Z,-0.74
2022-12-08T06:06:17.648Z,-0.95
2022-12-08T06:08:44.448Z,-0.71
2022-12-08T06:11:18.312Z,-0.45
2022-12-08T06:13:45.334Z,-0.48
2022-12-08T06:16:12.082Z,-0.53
2022-12-08T06:18:38.883Z,-0.46
2022-12-08T06:21:11.885Z,-0.49
2022-12-08T06:23:39.037Z,-0.52
2022-12-08T06:26:13.578Z,-0.44
2022-12-08T06:28:41.402Z,-0.43
2022-12-08T06:31:16.938Z,-0.30
2022-12-08T06:33:43.888Z,-0.39
2022-12-08T06:36:12.889Z,-0.15
2022-12-08T06:38:43.271Z,-0.17
2022-12-08T06:41:11.068Z,-0.42
2022-12-08T06:43:37.939Z,-0.24
2022-12-08T06:46:06.488Z,-0.23
2022-12-08T06:48:33.489Z,-0.17
2022-12-08T06:51:11.412Z,-0.48
2022-12-08T07:05:08.403Z,-0.58
2022-12-08T07:07:35.019Z,-0.39
2022-12-08T07:10:01.881Z,-0.57
2022-12-08T07:12:28.783Z,-0.84
2022-12-08T07:14:55.469Z,-0.73
2022-12-08T07:17:22.121Z,-0.57
2022-12-08T07:19:48.770Z,-0.55
2022-12-08T07:22:15.443Z,-0.26
2022-12-08T07:24:42.110Z,-0.23
2022-12-08T07:27:08.853Z,-0.24
2022-12-08T07:29:35.490Z,-0.23
2022-12-08T07:32:02.171Z,-0.22
2022-12-08T07:34:28.876Z,-0.28
2022-12-08T07:36:55.515Z,-0.26
2022-12-08T07:39:22.142Z,-0.27
2022-12-08T07:41:48.764Z,-0.40
2022-12-08T07:44:15.521Z,-0.29
2022-12-08T07:46:42.280Z,-0.13
2022-12-08T07:49:09.062Z,-0.21
2022-12-08T07:51:35.858Z,-0.20
2022-12-08T07:54:02.581Z,-0.13
2022-12-08T07:56:29.298Z,-0.13
2022-12-08T07:58:55.987Z,-0.14
2022-12-08T08:01:26.921Z,-0.21
2022-12-08T08:03:55.347Z,-0.19
2022-12-08T08:06:22.161Z,-0.27
2022-12-08T08:08:48.898Z,-0.37
2022-12-08T08:11:20.893Z,-0.22
2022-12-08T08:13:48.786Z,-0.59
2022-12-08T08:16:15.563Z,-0.42
2022-12-08T08:18:42.406Z,-0.32
2022-12-08T08:21:43.106Z,-0.28
2022-12-08T08:23:55.961Z,-0.56
2022-12-08T08:26:22.675Z,-0.65
2022-12-08T08:28:50.186Z,-0.49
2022-12-08T08:31:16.981Z,-0.37
2022-12-08T08:33:43.682Z,-0.15
2022-12-08T08:36:11.031Z,-0.24
2022-12-08T08:38:40.430Z,-0.02
2022-12-08T08:41:09.359Z,-0.10
2022-12-08T08:43:38.530Z,-0.26
2022-12-08T08:46:06.405Z,-0.55
2022-12-08T08:48:33.661Z,-0.12
2022-12-08T08:51:07.893Z,-0.28
2022-12-08T08:53:34.592Z,-0.23
2022-12-08T08:56:02.788Z,-0.19
2022-12-08T08:58:29.754Z,0.09
2022-12-08T09:00:56.570Z,0.07
2022-12-08T09:03:23.444Z,0.09
2022-12-08T09:05:50.603Z,0.05
2022-12-08T09:08:17.819Z,0.28
2022-12-08T09:10:44.605Z,0.15
2022-12-08T09:13:11.208Z,0.12
2022-12-08T09:15:37.886Z,-0.05
2022-12-08T09:18:06.766Z,0.03
2022-12-08T09:20:34.600Z,-0.09
2022-12-08T09:23:01.449Z,-0.18
2022-12-08T09:25:28.774Z,-0.02
2022-12-08T09:27:55.419Z,-0.43
2022-12-08T09:30:22.267Z,-0.14
2022-12-08T09:32:48.914Z,-0.14
2022-12-08T09:35:15.574Z,-0.05
2022-12-08T09:37:42.364Z,0.09
2022-12-08T09:40:12.003Z,-0.01
2022-12-08T09:42:59.905Z,-0.06
2022-12-08T09:45:30.353Z,0.20
2022-12-08T09:48:05.660Z,0.01
2022-12-08T09:50:39.610Z,0.07
2022-12-08T09:53:12.652Z,-0.09
2022-12-08T09:55:43.410Z,-0.22
2022-12-08T09:58:18.105Z,0.30
2022-12-08T10:00:44.861Z,0.12
2022-12-08T10:03:16.948Z,-0.57
2022-12-08T10:05:50.193Z,-0.25
2022-12-08T10:08:21.625Z,-0.14
2022-12-08T10:11:48.096Z,-0.03
2022-12-08T10:14:14.776Z,-0.26
2022-12-08T10:16:42.868Z,-0.33
2022-12-08T10:19:24.383Z,-0.33
2022-12-08T10:21:51.516Z,-0.39
2022-12-08T10:24:34.688Z,-0.32
2022-12-08T10:27:02.642Z,-0.37
2022-12-08T10:29:29.400Z,-0.23
2022-12-08T10:32:00.062Z,0.03
2022-12-08T10:34:26.877Z,-0.22
2022-12-08T10:36:56.307Z,-0.49
2022-12-08T10:39:40.848Z,-0.75
2022-12-08T10:42:19.972Z,-0.33
2022-12-08T10:44:59.117Z,-0.43
2022-12-08T10:47:27.297Z,-0.60
2022-12-08T10:50:20.297Z,-0.29
2022-12-08T10:52:55.842Z,-0.03
2022-12-08T10:55:23.627Z,-0.38
2022-12-08T10:57:50.645Z,-0.21
2022-12-08T11:00:24.360Z,-0.29
2022-12-08T11:02:55.463Z,-0.08
2022-12-08T11:05:24.000Z,0.01
2022-12-08T11:07:53.051Z,0.09
2022-12-08T11:10:21.461Z,0.12
2022-12-08T11:12:49.532Z,-0.24
2022-12-08T11:15:18.257Z,0.07
2022-12-08T11:17:50.108Z,0.05
2022-12-08T11:20:23.530Z,-0.35
2022-12-08T11:22:55.245Z,-0.28
2022-12-08T11:25:27.124Z,-0.25
2022-12-08T11:27:58.785Z,-0.17
2022-12-08T11:30:29.455Z,-0.03
2022-12-08T11:33:03.792Z,0.18
2022-12-08T11:35:34.177Z,0.08
2022-12-08T11:38:22.823Z,-0.16
2022-12-08T11:41:17.065Z,-0.29
2022-12-08T11:43:52.117Z,-0.43
2022-12-08T11:46:25.443Z,-0.76
2022-12-08T11:49:06.010Z,-0.59
2022-12-08T11:51:53.767Z,-0.54
2022-12-08T11:54:30.982Z,-0.50
2022-12-08T11:57:13.047Z,-0.30
2022-12-08T11:59:49.742Z,-0.41
2022-12-08T12:02:25.780Z,-0.23
2022-12-08T12:04:58.402Z,-0.51
2022-12-08T12:07:44.033Z,-0.45
2022-12-08T12:10:13.340Z,-0.53
2022-12-08T12:12:49.893Z,-0.54
2022-12-08T12:15:22.631Z,-0.25
2022-12-08T12:18:04.540Z,-0.27
2022-12-08T12:20:35.492Z,-0.11
2022-12-08T12:23:08.615Z,-0.48
2022-12-08T12:25:36.185Z,-0.27
2022-12-08T12:28:06.282Z,-0.61
2022-12-08T12:30:52.542Z,-0.85
2022-12-08T12:33:19.916Z,-0.65
2022-12-08T12:35:48.311Z,-0.64
2022-12-08T12:38:36.514Z,-0.74
2022-12-08T12:41:04.470Z,-0.72
2022-12-08T12:43:34.195Z,-0.70
2022-12-08T12:46:36.238Z,-0.67
2022-12-08T12:49:39.857Z,-0.75
2022-12-08T12:52:15.620Z,-0.75
2022-12-08T12:54:43.413Z,-0.98
2022-12-08T12:57:12.988Z,-0.93
2022-12-08T13:00:05.696Z,-0.95
2022-12-08T13:02:53.693Z,-1.07
2022-12-08T13:05:30.368Z,-0.67
2022-12-08T13:08:07.144Z,-0.73
2022-12-08T13:10:41.291Z,-0.88
2022-12-08T13:13:10.934Z,-0.99
2022-12-08T13:15:48.953Z,-0.86
2022-12-08T13:18:38.942Z,-0.79
2022-12-08T13:21:08.811Z,-0.74
2022-12-08T13:23:38.491Z,-0.56
2022-12-08T13:26:14.165Z,-0.63
2022-12-08T13:28:59.742Z,-0.89
2022-12-08T13:31:41.678Z,-1.00
2022-12-08T13:34:17.780Z,-0.67
2022-12-08T13:37:12.459Z,-0.81
2022-12-08T13:39:39.110Z,-0.67
2022-12-08T13:42:29.653Z,-0.86
2022-12-08T13:52:59.929Z,-0.66
2022-12-08T13:57:02.737Z,-1.13
2022-12-08T13:59:20.132Z,-1.20
2022-12-08T14:01:49.162Z,-1.39
2022-12-08T14:07:13.203Z,-1.11
2022-12-08T14:09:40.702Z,-1.09
2022-12-08T14:12:22.543Z,-1.32
2022-12-08T14:15:07.786Z,-1.36
2022-12-08T14:17:34.658Z,-1.57
2022-12-08T14:20:04.786Z,-1.49
2022-12-08T14:22:36.163Z,-1.50
2022-12-08T14:25:03.867Z,-1.54
2022-12-08T14:27:34.567Z,-1.59
2022-12-08T14:30:25.635Z,-1.54
2022-12-08T14:32:58.426Z,-1.62
2022-12-08T14:35:32.247Z,-1.41
2022-12-08T14:38:01.555Z,-1.29
2022-12-08T14:40:35.051Z,-1.16
2022-12-08T14:43:07.661Z,-1.11
2022-12-08T14:45:41.076Z,-1.32
2022-12-08T14:48:33.724Z,-1.37
2022-12-08T14:51:03.465Z,-1.41
2022-12-08T14:53:40.257Z,-1.52
2022-12-08T14:56:09.450Z,-1.52
2022-12-08T14:58:36.083Z,-1.45
2022-12-08T15:01:05.297Z,-1.50
2022-12-08T15:03:32.620Z,-1.43
2022-12-08T15:06:07.261Z,-1.36
2022-12-08T15:08:35.177Z,-1.36
2022-12-08T15:11:23.986Z,-1.13
2022-12-08T15:13:52.179Z,-1.02
2022-12-08T15:16:38.119Z,-1.08
2022-12-08T15:19:17.029Z,-1.28
2022-12-08T15:21:44.697Z,-1.15
2022-12-08T15:24:12.645Z,-1.24
2022-12-08T15:26:45.019Z,-1.11
2022-12-08T15:29:20.990Z,-1.13
2022-12-08T15:31:47.913Z,-1.23
2022-12-08T15:34:14.556Z,-1.26
2022-12-08T15:36:43.040Z,-1.21
2022-12-08T15:39:25.949Z,-1.33
2022-12-08T15:41:52.588Z,-1.37
2022-12-08T15:44:19.249Z,-1.29
2022-12-08T15:46:46.022Z,-1.33
2022-12-08T15:49:23.568Z,-1.32
2022-12-08T15:51:53.142Z,-1.33
2022-12-08T15:54:23.233Z,-1.38
2022-12-08T15:57:18.110Z,-1.35
2022-12-08T15:59:39.073Z,-1.36
2022-12-08T16:02:05.771Z,-1.45
2022-12-08T16:07:25.334Z,-1.44
2022-12-08T16:09:52.494Z,-1.47
2022-12-08T16:13:27.242Z,-1.48
2022-12-08T16:18:16.975Z,-1.40
2022-12-08T16:21:07.504Z,-1.22
2022-12-08T16:23:43.084Z,-1.29
2022-12-08T16:27:01.074Z,-1.37
2022-12-08T16:29:07.248Z,-1.40
2022-12-08T16:31:34.041Z,-1.24
2022-12-08T16:34:00.922Z,-1.13
2022-12-08T16:36:27.560Z,-1.12
2022-12-08T16:38:54.231Z,-1.18
2022-12-08T16:41:39.699Z,-1.10
2022-12-08T16:44:06.646Z,-1.10
2022-12-08T16:46:33.756Z,-1.21
2022-12-08T16:49:00.474Z,-1.48
2022-12-08T16:51:27.694Z,-1.58
2022-12-08T16:53:55.741Z,-1.60
2022-12-08T16:56:28.807Z,-1.53
2022-12-08T16:58:58.839Z,-1.53
2022-12-08T17:01:25.619Z,-1.54
2022-12-08T17:04:22.571Z,-1.69
2022-12-08T17:06:39.285Z,-1.45
2022-12-08T17:09:05.975Z,-1.36
2022-12-08T17:11:37.487Z,-1.35
2022-12-08T17:14:09.262Z,-1.37
2022-12-08T17:16:36.077Z,-1.54
2022-12-08T17:19:02.877Z,-1.47
2022-12-08T17:21:29.791Z,-1.44
2022-12-08T17:23:56.553Z,-1.37
2022-12-08T17:26:23.211Z,-1.45
2022-12-08T17:29:05.554Z,-1.42
2022-12-08T17:31:33.305Z,-1.47
2022-12-08T17:34:04.816Z,-1.44
2022-12-08T17:36:31.864Z,-1.54
2022-12-08T17:39:02.001Z,-1.58
2022-12-08T17:41:29.317Z,-1.69
2022-12-08T17:43:56.182Z,-1.60
2022-12-08T17:46:23.460Z,-1.43
2022-12-08T17:48:50.200Z,-1.48
2022-12-08T17:51:16.870Z,-1.57
2022-12-08T17:53:43.779Z,-1.62
2022-12-08T17:56:19.041Z,-1.82
2022-12-08T17:58:51.089Z,-1.61
2022-12-08T18:01:21.154Z,-1.47
2022-12-08T18:03:47.786Z,-1.44
2022-12-08T18:06:14.496Z,-1.51
2022-12-08T18:08:41.208Z,-1.48
2022-12-08T18:11:16.629Z,-1.39
2022-12-08T18:13:43.206Z,-1.51
2022-12-08T18:16:09.919Z,-1.55
2022-12-08T18:18:36.769Z,-1.57
2022-12-08T18:21:03.935Z,-1.53
2022-12-08T18:23:30.701Z,-1.61
2022-12-08T18:25:57.398Z,-1.51
2022-12-08T18:28:24.358Z,-1.41
2022-12-08T18:30:51.265Z,-1.23
2022-12-08T18:33:18.071Z,-1.45
2022-12-08T18:35:44.751Z,-1.36
2022-12-08T18:38:11.361Z,-1.38
2022-12-08T18:40:38.182Z,-1.23
2022-12-08T18:43:04.857Z,-1.16
2022-12-08T18:45:31.574Z,-1.32
2022-12-08T18:47:58.183Z,-1.34
2022-12-08T18:50:24.944Z,-1.56
2022-12-08T18:52:51.622Z,-1.42
2022-12-08T18:55:18.401Z,-1.48
2022-12-08T18:57:45.499Z,-1.57
2022-12-08T19:00:15.228Z,-1.52
2022-12-08T19:02:42.271Z,-1.47
2022-12-08T19:05:11.003Z,-1.51
2022-12-08T19:07:38.146Z,-1.45
2022-12-08T19:10:06.763Z,-1.41
2022-12-08T19:12:33.695Z,-1.39
2022-12-08T19:15:00.309Z,-1.29
2022-12-08T19:17:26.960Z,-1.35
2022-12-08T19:19:53.612Z,-1.49
2022-12-08T19:22:20.253Z,-1.40
2022-12-08T19:24:47.192Z,-1.26
2022-12-08T19:27:13.875Z,-1.19
2022-12-08T19:29:40.545Z,-1.34
2022-12-08T19:32:07.211Z,-1.40
2022-12-08T19:34:33.933Z,-1.23
2022-12-08T19:37:00.522Z,-1.26
2022-12-08T19:39:45.995Z,-1.38
2022-12-08T19:42:36.221Z,-1.32
2022-12-08T19:45:21.954Z,-1.35
2022-12-08T19:47:48.591Z,-1.32
2022-12-08T19:50:34.811Z,-1.40
2022-12-08T19:53:02.504Z,-1.26
2022-12-08T19:55:29.532Z,-1.32
2022-12-08T19:57:57.205Z,-1.17
2022-12-08T20:00:24.285Z,-1.08
2022-12-08T20:02:51.328Z,-1.16
2022-12-08T20:05:18.121Z,-1.11
2022-12-08T20:07:44.916Z,-1.12
2022-12-08T20:10:18.129Z,-1.21
2022-12-08T20:12:44.791Z,-1.13
2022-12-08T20:15:11.688Z,-1.04
2022-12-08T20:17:38.949Z,-1.05
2022-12-08T20:20:07.801Z,-1.06
2022-12-08T20:22:35.131Z,-1.08
2022-12-08T20:25:02.393Z,-1.29
2022-12-08T20:27:29.270Z,-1.34
2022-12-08T20:29:56.004Z,-1.27
2022-12-08T20:32:22.770Z,-1.37
2022-12-08T20:34:49.553Z,-1.27
2022-12-08T20:37:16.331Z,-1.23
2022-12-08T20:39:42.988Z,-1.10
2022-12-08T20:42:13.204Z,-1.24
2022-12-08T20:44:43.390Z,-1.05
2022-12-08T20:47:11.513Z,-1.19
2022-12-08T20:49:38.683Z,-1.14
2022-12-08T20:52:05.848Z,-1.03
2022-12-08T20:54:32.807Z,-1.28
2022-12-08T20:56:59.660Z,-0.96
2022-12-08T20:59:26.977Z,-1.03
2022-12-08T21:01:54.477Z,-1.11
2022-12-08T21:04:22.250Z,-1.05
2022-12-08T21:06:49.976Z,-1.07
2022-12-08T21:09:16.762Z,-1.11
2022-12-08T21:11:43.911Z,-1.24
2022-12-08T21:14:10.814Z,-1.30
2022-12-08T21:16:38.008Z,-1.53
2022-12-08T21:19:06.147Z,-1.49
2022-12-08T21:21:33.054Z,-1.35
2022-12-08T21:24:00.038Z,-1.35
2022-12-08T21:26:27.004Z,-1.45
2022-12-08T21:28:54.997Z,-1.47
2022-12-08T21:31:22.261Z,-1.34
2022-12-08T21:33:49.190Z,-1.11
2022-12-08T21:36:19.397Z,-1.18
2022-12-08T21:38:47.276Z,-1.16
2022-12-08T21:41:16.851Z,-1.18
2022-12-08T21:43:43.745Z,-1.30
2022-12-08T21:46:19.195Z,-1.32
2022-12-08T21:48:46.580Z,-1.17
2022-12-08T21:51:13.356Z,-1.25
2022-12-08T21:53:40.174Z,-1.27
2022-12-08T21:56:10.401Z,-1.13
2022-12-08T21:58:37.302Z,-1.20
2022-12-08T22:01:08.343Z,-1.06
2022-12-08T22:03:35.747Z,-1.11
2022-12-08T22:06:06.758Z,-1.17
2022-12-08T22:08:33.541Z,-1.36
2022-12-08T22:11:00.581Z,-1.34
2022-12-08T22:13:27.369Z,-1.08
2022-12-08T22:15:58.059Z,-1.21
2022-12-08T22:18:25.153Z,-1.29
2022-12-08T22:20:52.351Z,-1.34
2022-12-08T22:23:19.450Z,-1.35
2022-12-08T22:25:46.301Z,-1.40
2022-12-08T22:28:13.002Z,-1.40
2022-12-08T22:30:39.777Z,-1.32
2022-12-08T22:33:06.682Z,-1.54
2022-12-08T22:35:33.405Z,-1.42
2022-12-08T22:38:00.108Z,-1.43
2022-12-08T22:40:26.790Z,-1.30
2022-12-08T22:42:53.429Z,-1.33
2022-12-08T22:45:20.092Z,-1.64
2022-12-08T22:47:46.763Z,-1.74
2022-12-08T22:50:13.759Z,-1.58
2022-12-08T22:52:40.401Z,-1.51
2022-12-08T22:55:07.715Z,-1.47
2022-12-08T22:57:34.362Z,-1.47
2022-12-08T23:00:01.011Z,-1.60
2022-12-08T23:02:27.812Z,-1.54
2022-12-08T23:04:57.919Z,-1.61
2022-12-08T23:07:24.768Z,-1.73
2022-12-08T23:09:52.400Z,-1.82
2022-12-08T23:12:19.141Z,-1.71
2022-12-08T23:14:46.066Z,-1.74
2022-12-08T23:17:13.187Z,-1.67
2022-12-08T23:19:40.386Z,-1.65
2022-12-08T23:22:07.506Z,-1.71
2022-12-08T23:24:34.413Z,-1.78
2022-12-08T23:27:01.181Z,-1.54
2022-12-08T23:29:27.801Z,-1.55
2022-12-08T23:31:54.710Z,-1.60
2022-12-08T23:34:21.468Z,-1.52
2022-12-08T23:36:48.140Z,-1.75
2022-12-08T23:39:15.233Z,-1.91
2022-12-08T23:41:41.950Z,-1.89
2022-12-08T23:44:09.304Z,-1.82
2022-12-08T23:46:36.200Z,-2.13
2022-12-08T23:49:03.036Z,-2.04
2022-12-08T23:51:30.133Z,-1.96
2022-12-08T23:53:57.125Z,-1.87
2022-12-08T23:56:29.863Z,-2.16
2022-12-08T23:58:57.115Z,-2.16
